Time;durP1;ratioP1;P1;durP2;ratioP2;P2;SDS_P1;SDS_P2;PMS_P1;PMS_P2;Temp;Humidity;BMP_temperature;BMP_pressure;BME280_temperature;BME280_humidity;BME280_pressure;Samples;Min_cycle;Max_cycle;Signal;HPM_P1;HPM_P2
2021/09/08 00:00:28;;;;;;;13.90;8.90;;;18.70;99.90;;;;;;8255962;28;20384;-73
2021/09/08 00:04:31;;;;;;;13.90;8.70;;;18.70;99.90;;;;;;8255087;28;20042;-73
2021/09/08 00:08:33;;;;;;;14.23;9.82;;;18.70;99.90;;;;;;8257628;28;20517;-73
2021/09/08 00:12:36;;;;;;;13.18;8.82;;;18.70;99.90;;;;;;8259386;28;20085;-73
2021/09/08 00:16:38;;;;;;;14.25;9.15;;;18.70;99.90;;;;;;8258442;28;20077;-73
2021/09/08 00:20:40;;;;;;;13.30;9.30;;;18.70;99.90;;;;;;8256120;28;20049;-73
2021/09/08 00:25:01;;;;;;;14.10;8.75;;;18.70;99.90;;;;;;8258660;28;20513;-73
2021/09/08 00:29:03;;;;;;;14.50;9.35;;;18.70;99.90;;;;;;8255878;28;20131;-73
2021/09/08 00:33:04;;;;;;;12.80;7.82;;;18.60;99.90;;;;;;8257617;28;20055;-73
2021/09/08 00:37:06;;;;;;;14.45;8.40;;;18.50;99.90;;;;;;8247194;28;20053;-73
2021/09/08 00:41:08;;;;;;;13.95;8.70;;;18.50;99.90;;;;;;8264304;28;20050;-73
2021/09/08 00:45:11;;;;;;;14.10;8.68;;;18.50;99.90;;;;;;8258338;28;20053;-73
2021/09/08 00:49:12;;;;;;;13.98;9.43;;;18.40;99.90;;;;;;8258551;28;20112;-73
2021/09/08 00:53:20;;;;;;;13.55;8.95;;;18.40;99.90;;;;;;8257901;28;20061;-73
2021/09/08 00:57:23;;;;;;;13.95;8.70;;;18.40;99.90;;;;;;8257731;28;20054;-73
2021/09/08 01:01:25;;;;;;;13.38;8.57;;;18.40;99.90;;;;;;8256851;28;20053;-73
2021/09/08 01:05:27;;;;;;;13.43;8.88;;;18.40;99.90;;;;;;8256922;28;20045;-73
2021/09/08 01:09:29;;;;;;;12.13;8.07;;;18.40;99.90;;;;;;8257994;28;20061;-73
2021/09/08 01:13:32;;;;;;;13.80;8.90;;;18.30;99.90;;;;;;8268317;28;20039;-73
2021/09/08 01:17:34;;;;;;;14.50;8.30;;;18.20;99.90;;;;;;8260647;28;19926;-73
2021/09/08 01:21:35;;;;;;;15.07;8.50;;;18.20;99.90;;;;;;8261519;28;19930;-73
2021/09/08 01:25:37;;;;;;;14.23;9.27;;;18.20;99.90;;;;;;8278472;28;20046;-73
2021/09/08 01:29:39;;;;;;;13.23;9.02;;;18.20;99.90;;;;;;8278205;28;20100;-73
2021/09/08 01:33:42;;;;;;;;;;;18.10;99.90;;;;;;8271351;28;20054;-72
2021/09/08 01:37:47;;;;;;;14.90;8.40;;;18.10;99.90;;;;;;8263004;28;19922;-73
2021/09/08 01:41:50;;;;;;;15.05;9.45;;;18.10;99.90;;;;;;8262757;28;19940;-72
2021/09/08 01:45:52;;;;;;;12.90;8.45;;;18.10;99.90;;;;;;8262164;28;20051;-73
2021/09/08 01:49:54;;;;;;;14.20;8.85;;;18.10;99.90;;;;;;8256809;28;20020;-73
2021/09/08 01:53:56;;;;;;;;;;;18.10;99.90;;;;;;8263261;28;20055;-73
2021/09/08 01:57:58;;;;;;;15.37;9.60;;;18.10;99.90;;;;;;8262865;28;19921;-73
2021/09/08 02:01:59;;;;;;;12.40;8.90;;;18.10;99.90;;;;;;8261472;28;20054;-73
2021/09/08 02:06:24;;;;;;;13.80;8.90;;;18.10;99.90;;;;;;8264375;28;20004;-73
2021/09/08 02:10:25;;;;;;;14.65;9.15;;;18.10;99.90;;;;;;8262604;28;20359;-73
2021/09/08 02:14:27;;;;;;;14.13;8.83;;;18.00;99.90;;;;;;8257344;28;19927;-73
2021/09/08 02:18:29;;;;;;;13.70;8.53;;;17.90;99.90;;;;;;8260620;28;20054;-72
2021/09/08 02:22:30;;;;;;;16.20;8.48;;;17.90;99.90;;;;;;8256095;28;19930;-73
2021/09/08 02:26:32;;;;;;;12.27;8.02;;;17.80;99.90;;;;;;8259417;28;20405;-73
2021/09/08 02:30:34;;;;;;;13.70;8.70;;;17.80;99.90;;;;;;8261732;28;20057;-72
2021/09/08 02:34:36;;;;;;;12.70;8.73;;;17.70;99.90;;;;;;8257627;28;20660;-73
2021/09/08 02:38:37;;;;;;;14.85;8.48;;;17.70;99.90;;;;;;8255691;28;19925;-73
2021/09/08 02:42:39;;;;;;;13.88;8.85;;;17.60;99.90;;;;;;8258192;28;19930;-72
2021/09/08 02:46:50;;;;;;;11.82;7.85;;;17.50;99.90;;;;;;8274881;28;20053;-73
2021/09/08 02:50:52;;;;;;;14.80;8.20;;;17.50;99.90;;;;;;8260723;28;19926;-73
2021/09/08 02:54:53;;;;;;;13.15;9.07;;;17.40;99.90;;;;;;8260086;28;20104;-73
2021/09/08 02:58:55;;;;;;;12.85;8.07;;;17.30;99.90;;;;;;8261255;28;20050;-73
2021/09/08 03:02:57;;;;;;;14.07;8.93;;;17.40;99.90;;;;;;8254884;28;20061;-73
2021/09/08 03:06:59;;;;;;;16.05;8.55;;;17.30;99.90;;;;;;8261521;28;20073;-73
2021/09/08 03:11:00;;;;;;;15.25;8.77;;;17.30;99.90;;;;;;8254943;28;20833;-73
2021/09/08 03:15:03;;;;;;;16.30;8.20;;;17.30;99.90;;;;;;8261717;28;20050;-73
2021/09/08 03:19:06;;;;;;;15.07;8.60;;;17.20;99.90;;;;;;8255884;28;20150;-73
2021/09/08 03:23:08;;;;;;;12.00;7.95;;;17.20;99.90;;;;;;8259465;28;20707;-73
2021/09/08 03:27:09;;;;;;;;;;;17.20;99.90;;;;;;8258116;28;20267;-73
2021/09/08 03:31:11;;;;;;;15.18;8.70;;;17.20;99.90;;;;;;8253458;28;20435;-73
2021/09/08 03:35:13;;;;;;;12.32;7.93;;;17.10;99.90;;;;;;8259015;28;20046;-73
2021/09/08 03:39:15;;;;;;;12.98;8.43;;;17.10;99.90;;;;;;8256854;28;20043;-73
2021/09/08 03:43:17;;;;;;;13.80;8.32;;;17.00;99.90;;;;;;8255485;28;20046;-73
2021/09/08 03:47:18;;;;;;;13.38;8.57;;;17.00;99.90;;;;;;8256975;28;20076;-72
2021/09/08 03:51:20;;;;;;;13.70;8.20;;;16.90;99.90;;;;;;8257062;28;20050;-73
2021/09/08 03:55:22;;;;;;;14.50;8.95;;;16.90;99.90;;;;;;8257878;28;20050;-72
2021/09/08 03:59:24;;;;;;;18.20;9.90;;;16.80;99.90;;;;;;8273759;28;20050;-73
2021/09/08 04:03:25;;;;;;;15.87;9.90;;;16.80;99.90;;;;;;8252733;28;20050;-72
2021/09/08 04:07:27;;;;;;;15.40;9.82;;;16.80;99.90;;;;;;8273167;28;19922;-72
2021/09/08 04:11:29;;;;;;;15.48;8.90;;;16.80;99.90;;;;;;8257201;28;20046;-73
2021/09/08 04:15:37;;;;;;;17.92;8.50;;;16.80;99.90;;;;;;8258092;28;20081;-72
2021/09/08 04:19:38;;;;;;;14.10;8.30;;;16.80;99.90;;;;;;8251338;28;20485;-73
2021/09/08 04:23:40;;;;;;;15.25;8.85;;;16.80;99.90;;;;;;8249011;28;20097;-72
2021/09/08 04:27:42;;;;;;;;;;;16.70;99.90;;;;;;8272688;28;20416;-73
2021/09/08 04:31:43;;;;;;;14.60;9.32;;;16.70;99.90;;;;;;8257222;28;19922;-73
2021/09/08 04:35:45;;;;;;;;;;;16.70;99.90;;;;;;8256713;28;20361;-72
2021/09/08 04:39:47;;;;;;;16.63;9.48;;;16.60;99.90;;;;;;8255066;28;19929;-73
2021/09/08 04:43:49;;;;;;;;;;;16.60;99.90;;;;;;8257536;28;19974;-72
2021/09/08 04:47:51;;;;;;;13.07;8.13;;;16.60;99.90;;;;;;8256044;28;19949;-73
2021/09/08 04:51:53;;;;;;;13.88;8.80;;;16.50;99.90;;;;;;8260776;28;20050;-73
2021/09/08 04:55:56;;;;;;;;;;;16.50;99.90;;;;;;8262720;28;20057;-73
2021/09/08 04:59:58;;;;;;;16.15;9.30;;;16.40;99.90;;;;;;8259788;28;20061;-73
2021/09/08 05:04:00;;;;;;;15.30;9.20;;;16.40;99.90;;;;;;8263699;28;20407;-72
2021/09/08 05:08:02;;;;;;;15.10;9.48;;;16.40;99.90;;;;;;8261744;28;20046;-73
2021/09/08 05:12:04;;;;;;;;;;;16.30;99.90;;;;;;8262414;28;20043;-73
2021/09/08 05:16:07;;;;;;;;;;;16.30;99.90;;;;;;8255898;28;19921;-73
2021/09/08 05:20:09;;;;;;;;;;;16.30;99.90;;;;;;8254401;28;20020;-73
2021/09/08 05:24:10;;;;;;;;;;;16.30;99.90;;;;;;8242698;28;20227;-73
2021/09/08 05:28:12;;;;;;;;;;;16.30;99.90;;;;;;8255291;28;19922;-72
2021/09/08 05:32:14;;;;;;;16.13;8.70;;;16.30;99.90;;;;;;8246304;28;20370;-73
2021/09/08 05:36:16;;;;;;;17.33;9.68;;;16.30;99.90;;;;;;8251489;28;20497;-73
2021/09/08 05:40:17;;;;;;;16.98;10.00;;;16.40;99.90;;;;;;8250545;28;20050;-73
2021/09/08 05:44:19;;;;;;;17.67;9.50;;;16.40;99.90;;;;;;8248231;28;20053;-73
2021/09/08 05:48:21;;;;;;;21.30;9.82;;;16.40;99.90;;;;;;8252899;28;20084;-73
2021/09/08 05:52:23;;;;;;;14.63;9.13;;;16.50;99.90;;;;;;8249607;28;20070;-73
2021/09/08 05:56:24;;;;;;;17.05;10.35;;;16.60;99.90;;;;;;8250258;28;19926;-73
2021/09/08 06:00:26;;;;;;;;;;;16.70;99.90;;;;;;8253922;28;20105;-73
2021/09/08 06:04:28;;;;;;;17.77;10.07;;;16.80;99.90;;;;;;8244987;28;20271;-73
2021/09/08 06:08:30;;;;;;;21.13;10.43;;;16.90;99.90;;;;;;8248120;28;20058;-73
2021/09/08 06:12:32;;;;;;;18.63;10.40;;;17.00;99.90;;;;;;8250573;28;20046;-73
2021/09/08 06:16:33;;;;;;;17.45;10.05;;;17.10;99.90;;;;;;8237901;28;20129;-73
2021/09/08 06:20:35;;;;;;;17.55;10.63;;;17.30;99.90;;;;;;8246120;28;20049;-73
2021/09/08 06:24:37;;;;;;;16.70;9.20;;;17.40;99.90;;;;;;8246083;28;20180;-73
2021/09/08 06:28:39;;;;;;;15.75;9.77;;;17.50;99.90;;;;;;8244899;28;20086;-73
2021/09/08 06:32:41;;;;;;;17.80;10.38;;;17.70;99.90;;;;;;8246815;28;20491;-73
2021/09/08 06:36:43;;;;;;;16.90;10.15;;;17.80;99.90;;;;;;8249497;28;20042;-72
2021/09/08 06:40:44;;;;;;;20.60;11.13;;;17.90;99.90;;;;;;8251186;28;20308;-72
2021/09/08 06:44:52;;;;;;;16.80;10.48;;;18.10;99.90;;;;;;8248171;28;20373;-73
2021/09/08 06:48:54;;;;;;;20.88;10.93;;;18.20;99.90;;;;;;8243208;28;20432;-72
2021/09/08 06:52:56;;;;;;;19.17;11.77;;;18.30;99.90;;;;;;8248155;28;22355;-72
2021/09/08 06:56:58;;;;;;;18.38;11.27;;;18.40;99.90;;;;;;8248568;28;20050;-72
2021/09/08 07:01:00;;;;;;;19.30;10.30;;;18.50;99.90;;;;;;8249311;28;20046;-72
2021/09/08 07:05:03;;;;;;;17.33;10.30;;;18.60;99.90;;;;;;8230298;28;20057;-73
2021/09/08 07:09:05;;;;;;;19.73;10.73;;;18.70;99.90;;;;;;8245381;28;20467;-72
2021/09/08 07:13:07;;;;;;;18.15;10.65;;;18.80;99.90;;;;;;8244968;28;20113;-72
2021/09/08 07:17:21;;;;;;;18.70;11.23;;;18.90;99.90;;;;;;8249922;28;20406;-73
2021/09/08 07:21:22;;;;;;;17.98;11.45;;;19.00;99.90;;;;;;8247033;28;20414;-73
2021/09/08 07:25:24;;;;;;;20.10;10.23;;;19.00;99.90;;;;;;8237551;28;20046;-73
2021/09/08 07:29:28;;;;;;;17.60;9.40;;;19.10;99.90;;;;;;8241396;28;20473;-72
2021/09/08 07:33:30;;;;;;;16.58;10.38;;;19.20;99.90;;;;;;8239759;28;20194;-73
2021/09/08 07:37:33;;;;;;;17.33;10.35;;;19.30;99.90;;;;;;8233282;28;20560;-73
2021/09/08 07:41:34;;;;;;;16.83;9.77;;;19.40;99.90;;;;;;8244653;28;20068;-72
2021/09/08 07:45:36;;;;;;;16.52;10.68;;;19.50;99.90;;;;;;8248503;28;20482;-72
2021/09/08 07:49:38;;;;;;;16.45;9.50;;;19.60;99.90;;;;;;8245739;28;20266;-72
2021/09/08 07:53:40;;;;;;;17.15;10.15;;;19.70;99.90;;;;;;8246335;28;20061;-73
2021/09/08 07:57:42;;;;;;;15.93;9.70;;;19.80;99.90;;;;;;8246634;28;20092;-72
2021/09/08 08:01:43;;;;;;;17.20;10.45;;;19.90;99.90;;;;;;8248443;28;20154;-72
2021/09/08 08:05:46;;;;;;;19.30;9.80;;;20.10;99.90;;;;;;8247314;28;20099;-72
2021/09/08 08:09:47;;;;;;;15.15;9.57;;;20.20;99.90;;;;;;8246068;28;20497;-74
2021/09/08 08:13:49;;;;;;;19.73;9.82;;;20.30;99.90;;;;;;8246552;28;20497;-73
2021/09/08 08:18:04;;;;;;;16.75;9.63;;;20.40;99.90;;;;;;8246860;28;20450;-73
2021/09/08 08:22:06;;;;;;;14.88;8.63;;;20.50;99.90;;;;;;8261275;28;20049;-74
2021/09/08 08:26:07;;;;;;;15.05;9.20;;;20.70;99.90;;;;;;8254886;28;20081;-73
2021/09/08 08:30:11;;;;;;;14.70;9.10;;;20.80;99.90;;;;;;8252513;28;20410;-73
2021/09/08 08:34:13;;;;;;;14.07;9.02;;;20.90;99.90;;;;;;8246040;28;20065;-73
2021/09/08 08:38:15;;;;;;;16.10;9.98;;;21.00;99.90;;;;;;8249202;28;21439;-72
2021/09/08 08:42:22;;;;;;;16.92;8.80;;;21.10;99.90;;;;;;8244960;28;20051;-72
2021/09/08 08:46:24;;;;;;;15.85;9.93;;;21.20;99.90;;;;;;8248670;28;20050;-72
2021/09/08 08:50:27;;;;;;;14.82;9.60;;;21.20;99.90;;;;;;8249555;28;20050;-72
2021/09/08 08:54:29;;;;;;;16.77;9.85;;;21.30;99.90;;;;;;8251607;28;20144;-72
2021/09/08 08:58:30;;;;;;;14.25;9.10;;;21.40;99.90;;;;;;8248265;28;20061;-72
2021/09/08 09:02:33;;;;;;;14.68;9.65;;;21.50;99.90;;;;;;8266848;28;20051;-73
2021/09/08 09:06:42;;;;;;;16.73;10.00;;;21.50;99.90;;;;;;8252156;28;20050;-72
2021/09/08 09:10:44;;;;;;;17.30;10.45;;;21.60;99.90;;;;;;8249726;28;20050;-72
2021/09/08 09:14:49;;;;;;;16.60;11.30;;;21.70;99.90;;;;;;8250966;28;20402;-72
2021/09/08 09:18:50;;;;;;;15.82;9.57;;;21.80;99.90;;;;;;8248662;28;20054;-73
2021/09/08 09:23:01;;;;;;;15.88;9.25;;;21.80;99.90;;;;;;8248748;28;20053;-72
2021/09/08 09:27:03;;;;;;;15.10;10.35;;;21.90;99.90;;;;;;8246296;28;20050;-72
2021/09/08 09:31:16;;;;;;;17.50;10.40;;;22.00;99.90;;;;;;8248793;28;20058;-72
2021/09/08 09:35:21;;;;;;;16.10;10.30;;;22.10;99.90;;;;;;8245697;28;19969;-72
2021/09/08 09:39:29;;;;;;;15.30;9.18;;;22.20;99.90;;;;;;8248573;28;20046;-73
2021/09/08 09:43:31;;;;;;;15.88;9.93;;;22.20;99.90;;;;;;8247723;28;20046;-72
2021/09/08 09:47:38;;;;;;;15.55;10.38;;;22.30;99.90;;;;;;8246616;28;20055;-72
2021/09/08 09:51:41;;;;;;;14.75;8.93;;;22.40;99.90;;;;;;8248772;28;20050;-72
2021/09/08 09:55:43;;;;;;;15.20;10.20;;;22.50;99.90;;;;;;8246635;28;20065;-72
2021/09/08 09:59:45;;;;;;;;;;;22.60;99.90;;;;;;8246762;28;20293;-72
2021/09/08 10:03:47;;;;;;;;;;;22.70;99.90;;;;;;8247384;28;19926;-72
2021/09/08 10:07:49;;;;;;;;;;;22.80;99.90;;;;;;8255562;28;19934;-72
2021/09/08 10:11:53;;;;;;;;;;;22.90;99.90;;;;;;8249351;28;20404;-73
2021/09/08 10:15:55;;;;;;;;;;;23.00;99.90;;;;;;8251253;28;20005;-73
2021/09/08 10:20:05;;;;;;;14.70;8.52;;;23.20;99.90;;;;;;8247600;28;19964;-72
2021/09/08 10:24:09;;;;;;;15.90;8.93;;;23.30;99.90;;;;;;8250289;28;20042;-72
2021/09/08 10:28:15;;;;;;;13.30;8.40;;;23.40;99.90;;;;;;8243009;28;20046;-73
2021/09/08 10:32:39;;;;;;;15.48;9.55;;;23.50;99.90;;;;;;8248104;28;20077;-73
2021/09/08 10:36:43;;;;;;;13.00;8.65;;;23.70;99.90;;;;;;8243711;28;20038;-72
2021/09/08 10:40:47;;;;;;;15.07;8.60;;;23.80;99.90;;;;;;8246850;28;20518;-72
2021/09/08 10:44:52;;;;;;;13.10;8.40;;;23.80;99.90;;;;;;8247194;28;20438;-73
2021/09/08 10:48:54;;;;;;;13.48;8.00;;;23.90;99.90;;;;;;8260698;28;20042;-73
2021/09/08 10:52:55;;;;;;;11.73;7.90;;;24.00;99.90;;;;;;8248159;28;20054;-73
2021/09/08 10:56:58;;;;;;;10.68;6.85;;;24.10;99.90;;;;;;8248192;28;20046;-73
2021/09/08 11:01:00;;;;;;;11.55;6.63;;;24.20;99.90;;;;;;8248084;28;20128;-73
2021/09/08 11:05:02;;;;;;;13.13;7.78;;;24.30;99.90;;;;;;8247488;28;20043;-73
2021/09/08 11:09:08;;;;;;;11.27;7.53;;;24.40;99.90;;;;;;8247781;28;20490;-73
2021/09/08 11:13:09;;;;;;;11.02;7.93;;;24.50;99.90;;;;;;8243725;28;20054;-72
2021/09/08 11:17:22;;;;;;;10.38;7.18;;;24.60;99.90;;;;;;8235906;28;20422;-73
2021/09/08 11:21:29;;;;;;;11.07;7.60;;;24.60;99.90;;;;;;8242005;28;20070;-73
2021/09/08 11:25:32;;;;;;;;;;;24.70;99.90;;;;;;8246721;28;20055;-72
2021/09/08 11:29:33;;;;;;;10.80;7.32;;;24.70;99.90;;;;;;8245548;28;20373;-73
2021/09/08 11:33:54;;;;;;;11.98;7.03;;;24.80;99.90;;;;;;8245212;28;20093;-73
2021/09/08 11:37:55;;;;;;;12.02;6.97;;;24.80;99.90;;;;;;8242910;28;20046;-73
2021/09/08 11:42:05;;;;;;;11.15;7.35;;;24.90;99.90;;;;;;8243661;28;20046;-73
2021/09/08 11:46:17;;;;;;;11.00;6.88;;;25.00;99.90;;;;;;8241097;28;20042;-73
2021/09/08 11:50:19;;;;;;;9.45;6.88;;;25.00;99.90;;;;;;8242501;28;20487;-72
2021/09/08 11:54:24;;;;;;;10.80;7.45;;;25.10;99.90;;;;;;8262686;28;20053;-73
2021/09/08 11:58:25;;;;;;;9.75;7.10;;;25.20;99.90;;;;;;8233540;28;20050;-72
2021/09/08 12:02:27;;;;;;;11.90;7.38;;;25.30;99.90;;;;;;8243178;28;20038;-72
2021/09/08 12:06:50;;;;;;;9.65;6.55;;;25.30;99.90;;;;;;8245230;28;20046;-73
2021/09/08 12:10:52;;;;;;;10.75;6.88;;;25.40;99.90;;;;;;8243383;28;20050;-72
2021/09/08 12:14:53;;;;;;;10.57;7.68;;;25.40;99.90;;;;;;8246910;28;20046;-73
2021/09/08 12:19:24;;;;;;;10.20;7.30;;;25.50;99.90;;;;;;8244128;28;20076;-73
2021/09/08 12:23:32;;;;;;;10.23;7.25;;;25.50;99.90;;;;;;8243419;28;20050;-73
2021/09/08 12:27:39;;;;;;;12.48;8.07;;;25.50;99.90;;;;;;8261186;28;20422;-73
2021/09/08 12:31:51;;;;;;;11.02;7.45;;;25.60;99.90;;;;;;8242949;28;20069;-72
2021/09/08 12:35:56;;;;;;;10.77;7.70;;;25.60;99.90;;;;;;8229071;28;20054;-73
2021/09/08 12:39:58;;;;;;;13.30;8.00;;;25.60;99.90;;;;;;8257427;28;20050;-73
2021/09/08 12:44:02;;;;;;;11.38;7.70;;;25.70;99.90;;;;;;8244839;28;20050;-73
2021/09/08 12:48:06;;;;;;;11.82;7.63;;;25.70;99.90;;;;;;8244563;28;20057;-72
2021/09/08 12:52:20;;;;;;;11.50;8.32;;;25.70;99.90;;;;;;8242717;28;20058;-72
2021/09/08 12:56:21;;;;;;;11.45;8.15;;;25.70;99.90;;;;;;8244286;28;20057;-73
2021/09/08 13:00:23;;;;;;;11.63;7.57;;;25.80;99.90;;;;;;8245963;28;20046;-73
2021/09/08 13:04:25;;;;;;;11.95;7.72;;;25.80;99.90;;;;;;8240804;28;20053;-73
2021/09/08 13:08:27;;;;;;;9.77;7.40;;;25.80;99.90;;;;;;8245331;28;20118;-73
2021/09/08 13:12:28;;;;;;;10.52;6.78;;;25.80;99.90;;;;;;8252366;28;20073;-73
2021/09/08 13:16:32;;;;;;;9.50;7.05;;;25.90;99.90;;;;;;8248336;28;20050;-73
2021/09/08 13:20:34;;;;;;;9.95;7.05;;;26.00;99.90;;;;;;8233924;28;20427;-73
2021/09/08 13:24:36;;;;;;;10.60;7.75;;;25.90;99.90;;;;;;8238856;28;20054;-73
2021/09/08 13:28:38;;;;;;;11.07;7.38;;;26.00;99.90;;;;;;8264638;28;20065;-72
2021/09/08 13:32:40;;;;;;;11.43;7.97;;;26.00;99.90;;;;;;8247335;28;20054;-73
2021/09/08 13:36:41;;;;;;;11.48;8.02;;;26.10;99.90;;;;;;8247960;28;20050;-73
2021/09/08 13:40:55;;;;;;;10.48;7.53;;;26.10;99.90;;;;;;8246785;28;20069;-73
2021/09/08 13:44:57;;;;;;;9.88;7.07;;;26.10;99.90;;;;;;8245456;28;20046;-73
2021/09/08 13:48:59;;;;;;;10.18;7.15;;;26.20;99.90;;;;;;8248743;28;20046;-73
2021/09/08 13:53:00;;;;;;;10.18;7.50;;;26.20;99.90;;;;;;8251483;28;20054;-72
2021/09/08 13:57:02;;;;;;;11.80;7.55;;;26.20;99.90;;;;;;8248300;28;20050;-73
2021/09/08 14:01:04;;;;;;;11.50;7.50;;;26.30;99.90;;;;;;8248958;28;20054;-73
2021/09/08 14:05:06;;;;;;;10.85;8.02;;;26.30;99.90;;;;;;8249897;28;20057;-73
2021/09/08 14:09:09;;;;;;;11.43;7.88;;;26.40;99.90;;;;;;8247227;28;20054;-73
2021/09/08 14:13:12;;;;;;;10.18;7.88;;;26.40;99.90;;;;;;8249832;28;20050;-73
2021/09/08 14:17:14;;;;;;;11.27;7.38;;;26.40;99.90;;;;;;8243247;28;20054;-73
2021/09/08 14:21:15;;;;;;;11.15;7.53;;;26.40;99.90;;;;;;8245189;28;20128;-73
2021/09/08 14:25:17;;;;;;;10.80;7.70;;;26.50;99.90;;;;;;8265076;28;20053;-73
2021/09/08 14:29:19;;;;;;;9.77;7.18;;;26.50;99.90;;;;;;8245104;28;20066;-72
2021/09/08 14:33:21;;;;;;;12.68;7.68;;;26.50;99.90;;;;;;8263489;28;20082;-73
2021/09/08 14:37:23;;;;;;;11.95;8.02;;;26.50;99.90;;;;;;8245826;28;20051;-73
2021/09/08 14:41:24;;;;;;;9.65;7.43;;;26.50;99.90;;;;;;8235026;28;20042;-73
2021/09/08 14:45:27;;;;;;;11.02;8.20;;;26.50;99.90;;;;;;8248123;28;20054;-73
2021/09/08 14:49:29;;;;;;;12.77;8.63;;;26.60;99.90;;;;;;8247113;28;20438;-73
2021/09/08 14:53:31;;;;;;;10.35;7.57;;;26.60;99.90;;;;;;8245630;28;20055;-73
2021/09/08 14:57:32;;;;;;;13.00;8.40;;;26.60;99.90;;;;;;8247622;28;20125;-73
2021/09/08 15:01:34;;;;;;;10.38;7.63;;;26.60;99.90;;;;;;8246175;28;20521;-73
2021/09/08 15:05:37;;;;;;;11.35;7.55;;;26.60;99.90;;;;;;8263987;28;20046;-73
2021/09/08 15:09:38;;;;;;;10.02;7.00;;;26.60;99.90;;;;;;8246861;28;20046;-73
2021/09/08 15:13:40;;;;;;;11.90;8.13;;;26.60;99.90;;;;;;8246002;28;20042;-73
2021/09/08 15:17:43;;;;;;;12.70;8.50;;;26.60;99.90;;;;;;8260615;28;20046;-73
2021/09/08 15:21:44;;;;;;;9.82;7.18;;;26.60;99.90;;;;;;8262839;28;20054;-73
2021/09/08 15:25:46;;;;;;;10.85;7.82;;;26.60;99.90;;;;;;8263482;28;20053;-73
2021/09/08 15:29:48;;;;;;;11.50;7.30;;;26.70;99.90;;;;;;8246204;28;20061;-73
2021/09/08 15:33:49;;;;;;;10.70;7.35;;;26.60;99.90;;;;;;8248266;28;20065;-73
2021/09/08 15:37:51;;;;;;;11.93;8.10;;;26.70;99.90;;;;;;8250461;28;20054;-73
2021/09/08 15:41:55;;;;;;;10.43;6.68;;;26.70;99.90;;;;;;8249033;28;20396;-72
2021/09/08 15:45:57;;;;;;;11.40;7.00;;;26.70;99.90;;;;;;8248148;28;20046;-73
2021/09/08 15:49:58;;;;;;;8.75;6.53;;;26.70;99.90;;;;;;8242142;28;20042;-73
2021/09/08 15:54:15;;;;;;;10.60;6.57;;;26.70;99.90;;;;;;8245218;28;20085;-72
2021/09/08 15:58:17;;;;;;;9.73;7.13;;;26.70;99.90;;;;;;8244611;28;20051;-72
2021/09/08 16:02:19;;;;;;;9.40;7.15;;;26.70;99.90;;;;;;8244049;28;20053;-73
2021/09/08 16:06:21;;;;;;;9.32;6.40;;;26.70;99.90;;;;;;8248047;28;20066;-73
2021/09/08 16:10:23;;;;;;;10.05;6.45;;;26.80;99.90;;;;;;8248244;28;20564;-73
2021/09/08 16:14:27;;;;;;;9.48;6.68;;;26.90;99.90;;;;;;8246330;28;20153;-73
2021/09/08 16:18:31;;;;;;;9.05;6.32;;;27.00;99.90;;;;;;8233202;28;20515;-73
2021/09/08 16:22:33;;;;;;;7.90;5.75;;;27.00;99.90;;;;;;8262933;28;20046;-73
2021/09/08 16:26:36;;;;;;;10.27;6.63;;;26.90;99.90;;;;;;8245887;28;20082;-73
2021/09/08 16:30:37;;;;;;;9.00;6.43;;;26.90;99.90;;;;;;8260482;28;20050;-73
2021/09/08 16:34:39;;;;;;;9.90;6.75;;;26.90;99.90;;;;;;8244560;28;20054;-73
2021/09/08 16:38:42;;;;;;;9.13;6.18;;;26.90;99.90;;;;;;8259367;28;20097;-73
2021/09/08 16:42:43;;;;;;;10.32;7.00;;;27.00;99.90;;;;;;8261348;28;21340;-73
2021/09/08 16:46:45;;;;;;;11.15;6.60;;;27.20;99.90;;;;;;8238602;28;20047;-73
2021/09/08 16:50:48;;;;;;;8.23;6.20;;;27.70;99.90;;;;;;8253996;28;20050;-73
2021/09/08 16:54:50;;;;;;;10.23;6.70;;;28.10;99.90;;;;;;8252828;28;25131;-73
2021/09/08 16:58:51;;;;;;;11.45;6.80;;;28.60;99.90;;;;;;8254145;28;20128;-73
2021/09/08 17:02:53;;;;;;;;;;;28.90;99.90;;;;;;8253719;28;20075;-73
2021/09/08 17:06:55;;;;;;;;;;;29.10;99.90;;;;;;8253332;28;20720;-73
2021/09/08 17:10:57;;;;;;;;;;;29.20;99.90;;;;;;8253499;28;19925;-73
2021/09/08 17:14:59;;;;;;;7.50;5.90;;;29.30;99.90;;;;;;8253677;28;25065;-74
2021/09/08 17:19:00;;;;;;;;;;;29.30;99.90;;;;;;8251726;28;20766;-73
2021/09/08 17:23:02;;;;;;;;;;;29.20;99.90;;;;;;8251086;28;19926;-73
2021/09/08 17:27:04;;;;;;;;;;;29.20;99.90;;;;;;8240227;28;19925;-73
2021/09/08 17:31:05;;;;;;;;;;;29.00;99.90;;;;;;8253872;28;19926;-73
2021/09/08 17:35:07;;;;;;;;;;;28.80;99.90;;;;;;8254759;28;20368;-73
2021/09/08 17:39:10;;;;;;;9.60;7.10;;;28.50;99.90;;;;;;8265538;28;20354;-73
2021/09/08 17:43:12;;;;;;;13.40;7.88;;;28.10;99.90;;;;;;8237755;28;20088;-73
2021/09/08 17:47:14;;;;;;;10.32;7.50;;;27.70;99.90;;;;;;8252822;28;20053;-73
2021/09/08 17:51:16;;;;;;;11.60;7.50;;;27.30;99.90;;;;;;8251161;28;20069;-73
2021/09/08 17:55:18;;;;;;;9.57;7.70;;;26.90;99.90;;;;;;8240025;28;20141;-73
2021/09/08 17:59:23;;;;;;;11.65;8.30;;;26.50;99.90;;;;;;8249401;28;20038;-73
2021/09/08 18:03:25;;;;;;;11.68;7.88;;;26.20;99.90;;;;;;8251097;28;20055;-73
2021/09/08 18:07:27;;;;;;;11.75;8.27;;;25.90;99.90;;;;;;8266643;28;20047;-73
2021/09/08 18:11:29;;;;;;;;;;;25.60;99.90;;;;;;8251663;28;20414;-73
2021/09/08 18:15:32;;;;;;;;;;;25.40;99.90;;;;;;8265390;28;20412;-73
2021/09/08 18:19:34;;;;;;;;;;;25.20;99.90;;;;;;8249239;28;19929;-73
2021/09/08 18:23:35;;;;;;;;;;;24.90;99.90;;;;;;8251236;28;19956;-73
2021/09/08 18:27:38;;;;;;;;;;;24.80;99.90;;;;;;8252976;28;19988;-73
2021/09/08 18:31:39;;;;;;;;;;;24.60;99.90;;;;;;8253304;28;19933;-73
2021/09/08 18:35:41;;;;;;;;;;;24.50;99.90;;;;;;8252764;28;20405;-73
2021/09/08 18:39:44;;;;;;;11.80;8.90;;;24.30;99.90;;;;;;8251488;28;19929;-73
2021/09/08 18:43:46;;;;;;;11.77;8.55;;;24.20;99.90;;;;;;8252618;28;20050;-73
2021/09/08 18:47:48;;;;;;;14.40;9.43;;;24.10;99.90;;;;;;8254689;28;20095;-73
2021/09/08 18:51:50;;;;;;;12.45;8.77;;;24.00;99.90;;;;;;8252047;28;20748;-73
2021/09/08 18:55:54;;;;;;;11.85;9.13;;;23.90;99.90;;;;;;8252191;28;20510;-73
2021/09/08 18:59:56;;;;;;;13.63;9.15;;;23.80;99.90;;;;;;8253992;28;20050;-73
2021/09/08 19:03:57;;;;;;;14.93;9.52;;;23.70;99.90;;;;;;8252990;28;20053;-73
2021/09/08 19:07:59;;;;;;;14.88;9.20;;;23.60;99.90;;;;;;8265796;28;20046;-73
2021/09/08 19:12:01;;;;;;;16.50;9.43;;;23.50;99.90;;;;;;8252513;28;20053;-73
2021/09/08 19:16:03;;;;;;;14.98;9.60;;;23.50;99.90;;;;;;8250377;28;20510;-73
2021/09/08 19:20:09;;;;;;;14.95;9.27;;;23.30;99.90;;;;;;8250329;28;20121;-73
2021/09/08 19:24:12;;;;;;;;;;;23.30;99.90;;;;;;8249884;28;20078;-73
2021/09/08 19:28:13;;;;;;;13.55;9.35;;;23.20;99.90;;;;;;8249739;28;20377;-72
2021/09/08 19:32:15;;;;;;;14.55;9.60;;;23.10;99.90;;;;;;8261651;28;20046;-73
2021/09/08 19:36:17;;;;;;;13.85;9.90;;;23.00;99.90;;;;;;8244645;28;20042;-73
2021/09/08 19:40:19;;;;;;;12.65;9.15;;;23.00;99.90;;;;;;8243260;28;20475;-73
2021/09/08 19:44:21;;;;;;;14.70;9.30;;;22.90;99.90;;;;;;8241829;28;20061;-73
2021/09/08 19:48:23;;;;;;;12.85;9.55;;;22.80;99.90;;;;;;8241367;28;20351;-73
2021/09/08 19:52:24;;;;;;;11.77;9.50;;;22.70;99.90;;;;;;8242268;28;20058;-73
2021/09/08 19:56:26;;;;;;;15.13;10.30;;;22.70;99.90;;;;;;8251283;28;20054;-73
2021/09/08 20:00:32;;;;;;;13.25;10.18;;;22.60;99.90;;;;;;8249989;28;20046;-73
2021/09/08 20:04:34;;;;;;;14.77;10.05;;;22.60;99.90;;;;;;8248201;28;20074;-73
2021/09/08 20:08:38;;;;;;;15.63;10.70;;;22.60;99.90;;;;;;8259889;28;20050;-73
2021/09/08 20:12:41;;;;;;;15.70;10.30;;;22.50;99.90;;;;;;8251659;28;20494;-73
2021/09/08 20:16:42;;;;;;;14.20;9.95;;;22.50;99.90;;;;;;8250235;28;20405;-73
2021/09/08 20:20:46;;;;;;;;;;;22.50;99.90;;;;;;8248990;28;20054;-73
2021/09/08 20:24:48;;;;;;;;;;;22.50;99.90;;;;;;8249812;28;20073;-73
2021/09/08 20:28:50;;;;;;;14.20;10.60;;;22.50;99.90;;;;;;8251163;28;19925;-73
2021/09/08 20:32:52;;;;;;;12.95;10.20;;;22.50;99.90;;;;;;8247611;28;20074;-73
2021/09/08 20:36:53;;;;;;;;;;;22.50;99.90;;;;;;8251903;28;20286;-72
2021/09/08 20:40:55;;;;;;;15.20;10.10;;;22.50;99.90;;;;;;8251634;28;19925;-73
2021/09/08 20:44:57;;;;;;;15.00;10.18;;;22.50;99.90;;;;;;8248304;28;20050;-72
2021/09/08 20:48:59;;;;;;;13.57;10.05;;;22.50;99.90;;;;;;8250248;28;20058;-73
2021/09/08 20:53:01;;;;;;;14.60;9.98;;;22.40;99.90;;;;;;8249416;28;20053;-73
2021/09/08 20:57:04;;;;;;;15.00;9.77;;;22.40;99.90;;;;;;8249424;28;20047;-73
2021/09/08 21:01:06;;;;;;;12.85;9.13;;;22.30;99.90;;;;;;8251114;28;20038;-73
2021/09/08 21:05:09;;;;;;;13.80;9.40;;;22.30;99.90;;;;;;8258631;28;20050;-72